createdAt,value
2023-03-20T00:02:02.519Z,4.88
2023-03-20T00:04:29.933Z,4.32
2023-03-20T00:06:57.033Z,5.15
2023-03-20T00:09:25.720Z,5.57
2023-03-20T00:11:55.496Z,6.32
2023-03-20T00:14:24.873Z,6.00
2023-03-20T00:16:52.636Z,6.60
2023-03-20T00:19:30.066Z,5.60
2023-03-20T00:21:57.854Z,5.57
2023-03-20T00:24:25.433Z,6.30
2023-03-20T00:26:53.519Z,6.70
2023-03-20T00:29:26.288Z,6.68
2023-03-20T00:31:54.699Z,7.10
2023-03-20T00:34:24.186Z,7.65
2023-03-20T00:36:52.621Z,7.15
2023-03-20T00:39:20.568Z,7.93
2023-03-20T00:42:01.812Z,8.07
2023-03-20T00:44:53.277Z,8.38
2023-03-20T00:47:23.288Z,8.52
2023-03-20T00:49:52.383Z,8.70
2023-03-20T00:52:20.915Z,8.98
2023-03-20T00:54:48.329Z,9.68
2023-03-20T00:57:26.031Z,9.63
2023-03-20T01:00:18.579Z,10.18
2023-03-20T01:02:46.007Z,11.40
2023-03-20T01:05:13.180Z,11.10
2023-03-20T01:07:40.451Z,10.63
2023-03-20T01:10:08.391Z,10.20
2023-03-20T01:12:35.730Z,9.95
2023-03-20T01:15:03.024Z,9.73
2023-03-20T01:17:31.075Z,8.93
2023-03-20T01:19:58.071Z,8.73
2023-03-20T01:22:25.325Z,8.40
2023-03-20T01:24:52.340Z,8.55
2023-03-20T01:27:20.889Z,8.63
2023-03-20T01:29:48.201Z,8.15
2023-03-20T01:32:18.364Z,7.38
2023-03-20T01:34:45.420Z,6.68
2023-03-20T01:37:25.502Z,7.47
2023-03-20T01:39:53.260Z,7.85
2023-03-20T01:42:20.545Z,8.40
2023-03-20T01:44:48.517Z,8.57
2023-03-20T01:47:19.299Z,9.27
2023-03-20T01:50:22.537Z,7.88
2023-03-20T01:53:04.062Z,8.20
2023-03-20T01:55:32.016Z,8.77
2023-03-20T01:58:05.294Z,8.90
2023-03-20T02:00:33.299Z,7.68
2023-03-20T02:03:00.966Z,8.43
2023-03-20T02:05:28.235Z,8.80
2023-03-20T02:08:11.762Z,8.43
2023-03-20T02:10:40.339Z,7.15
2023-03-20T02:13:08.144Z,7.43
2023-03-20T02:15:36.274Z,6.85
2023-03-20T02:18:03.641Z,6.53
2023-03-20T02:20:56.744Z,6.53
2023-03-20T02:23:42.246Z,5.93
2023-03-20T02:26:29.845Z,5.13
2023-03-20T02:29:34.538Z,5.07
2023-03-20T02:34:57.052Z,4.72
2023-03-20T02:37:48.189Z,5.35
2023-03-20T02:40:41.887Z,4.88
2023-03-20T02:43:41.817Z,4.78
2023-03-20T02:46:11.666Z,4.75
2023-03-20T02:48:38.755Z,4.57
2023-03-20T02:51:24.995Z,5.72
2023-03-20T02:54:09.671Z,4.88
2023-03-20T02:56:58.299Z,5.38
2023-03-20T02:59:52.041Z,6.10
2023-03-20T03:02:28.656Z,5.97
2023-03-20T03:05:01.047Z,7.03
2023-03-20T03:07:33.321Z,7.18
2023-03-20T03:10:11.953Z,6.90
2023-03-20T03:12:43.336Z,6.68
2023-03-20T03:15:24.085Z,6.75
2023-03-20T03:17:51.908Z,6.57
2023-03-20T03:20:28.016Z,6.85
2023-03-20T03:22:56.294Z,6.88
2023-03-20T03:25:27.905Z,6.32
2023-03-20T03:28:03.054Z,6.82
2023-03-20T03:30:34.350Z,5.93
2023-03-20T03:33:19.616Z,5.93
2023-03-20T03:35:48.428Z,6.55
2023-03-20T03:38:31.425Z,7.43
2023-03-20T03:41:18.799Z,6.70
2023-03-20T03:44:13.158Z,7.60
2023-03-20T03:49:21.995Z,8.70
2023-03-20T03:51:57.578Z,9.73
2023-03-20T03:54:34.688Z,9.80
2023-03-20T03:57:03.409Z,10.27
2023-03-20T03:59:36.797Z,10.10
2023-03-20T04:02:08.531Z,10.50
2023-03-20T04:04:38.737Z,10.55
2023-03-20T04:07:05.911Z,11.98
2023-03-20T04:09:33.643Z,11.80
2023-03-20T04:12:00.964Z,11.98
2023-03-20T04:14:28.008Z,10.98
2023-03-20T04:16:55.250Z,12.23
2023-03-20T04:19:22.341Z,12.30
2023-03-20T04:21:49.406Z,11.07
2023-03-20T04:24:16.785Z,12.13
2023-03-20T04:26:43.807Z,11.98
2023-03-20T04:29:11.093Z,11.65
2023-03-20T04:31:38.199Z,11.95
2023-03-20T04:34:05.430Z,10.98
2023-03-20T04:36:32.482Z,11.48
2023-03-20T04:39:00.238Z,11.32
2023-03-20T04:41:27.288Z,10.80
2023-03-20T04:43:54.412Z,11.57
2023-03-20T04:46:21.965Z,11.95
2023-03-20T04:48:49.123Z,12.05
2023-03-20T04:51:16.204Z,11.65
2023-03-20T04:53:43.276Z,12.27
2023-03-20T04:56:10.460Z,11.40
2023-03-20T04:58:37.585Z,11.35
2023-03-20T05:01:04.782Z,12.10
2023-03-20T05:03:31.869Z,13.07
2023-03-20T05:06:00.105Z,12.82
2023-03-20T05:08:27.224Z,12.93
2023-03-20T05:10:54.315Z,12.65
2023-03-20T05:13:21.349Z,12.90
2023-03-20T05:15:48.461Z,13.55
2023-03-20T05:18:15.751Z,13.15
2023-03-20T05:20:42.918Z,13.07
2023-03-20T05:23:10.232Z,12.73
2023-03-20T05:25:37.417Z,12.40
2023-03-20T05:28:04.640Z,13.50
2023-03-20T05:30:32.145Z,13.73
2023-03-20T05:33:00.519Z,12.93
2023-03-20T05:35:27.737Z,13.43
2023-03-20T05:37:54.926Z,12.57
2023-03-20T05:40:24.188Z,14.45
2023-03-20T05:42:52.763Z,13.77
2023-03-20T05:45:20.897Z,14.15
2023-03-20T05:47:48.002Z,14.38
2023-03-20T05:50:15.281Z,13.48
2023-03-20T05:52:42.351Z,13.50
2023-03-20T05:55:09.531Z,14.73
2023-03-20T05:57:36.681Z,13.45
2023-03-20T06:00:05.849Z,13.57
2023-03-20T06:02:32.989Z,13.15
2023-03-20T06:05:00.788Z,12.75
2023-03-20T06:07:27.808Z,12.85
2023-03-20T06:09:55.498Z,13.38
2023-03-20T06:12:23.075Z,13.40
2023-03-20T06:14:50.717Z,12.93
2023-03-20T06:17:17.808Z,12.18
2023-03-20T06:19:44.956Z,12.73
2023-03-20T06:22:12.115Z,13.20
2023-03-20T06:24:39.180Z,11.80
2023-03-20T06:27:06.193Z,12.45
2023-03-20T06:29:33.339Z,13.02
2023-03-20T06:32:00.917Z,12.07
2023-03-20T06:34:28.054Z,11.70
2023-03-20T06:36:55.141Z,10.82
2023-03-20T06:39:22.182Z,12.68
2023-03-20T06:41:49.324Z,11.15
2023-03-20T06:44:16.823Z,12.95
2023-03-20T06:46:43.876Z,11.90
2023-03-20T06:49:11.003Z,11.73
2023-03-20T06:51:38.155Z,12.43
2023-03-20T06:54:05.554Z,11.40
2023-03-20T06:56:32.960Z,11.77
2023-03-20T06:59:00.960Z,10.68
2023-03-20T07:01:28.721Z,10.88
2023-03-20T07:03:56.586Z,11.02
2023-03-20T07:06:23.717Z,12.15
2023-03-20T07:08:52.844Z,11.32
2023-03-20T07:11:20.176Z,11.48
2023-03-20T07:13:49.821Z,11.48
2023-03-20T07:16:17.243Z,11.40
2023-03-20T07:18:44.463Z,11.85
2023-03-20T07:21:17.882Z,9.50
2023-03-20T07:23:45.128Z,11.00
2023-03-20T07:26:12.292Z,11.00
2023-03-20T07:28:39.637Z,11.68
2023-03-20T07:31:06.764Z,10.15
2023-03-20T07:33:33.952Z,9.90
2023-03-20T07:36:01.725Z,11.02
2023-03-20T07:38:29.763Z,11.27
2023-03-20T07:40:56.881Z,9.85
2023-03-20T07:43:23.963Z,11.38
2023-03-20T07:45:51.889Z,10.35
2023-03-20T07:48:19.052Z,10.02
2023-03-20T07:50:46.122Z,10.25
2023-03-20T07:53:13.221Z,16.58
2023-03-20T07:55:40.598Z,10.70
2023-03-20T07:58:08.836Z,10.18
2023-03-20T08:00:36.690Z,9.40
2023-03-20T08:03:04.154Z,9.27
2023-03-20T08:05:31.329Z,9.52
2023-03-20T08:07:59.489Z,8.60
2023-03-20T08:10:27.145Z,7.70
2023-03-20T08:12:54.369Z,9.50
2023-03-20T08:15:21.544Z,8.98
2023-03-20T08:17:48.674Z,8.63
2023-03-20T08:20:17.324Z,7.72
2023-03-20T08:22:44.807Z,7.75
2023-03-20T08:25:11.972Z,8.07
2023-03-20T08:27:39.063Z,8.32
2023-03-20T08:30:07.028Z,7.85
2023-03-20T08:32:34.255Z,7.68
2023-03-20T08:35:01.618Z,6.30
2023-03-20T08:37:29.525Z,6.28
2023-03-20T08:39:56.675Z,6.70
2023-03-20T08:42:23.771Z,6.20
2023-03-20T08:44:51.951Z,6.00
2023-03-20T08:47:20.105Z,6.43
2023-03-20T08:49:47.172Z,6.97
2023-03-20T08:52:14.674Z,5.75
2023-03-20T08:54:41.737Z,5.88
2023-03-20T08:57:08.823Z,5.72
2023-03-20T08:59:36.128Z,6.45
2023-03-20T09:02:03.337Z,6.22
2023-03-20T09:04:30.900Z,6.53
2023-03-20T09:06:58.004Z,7.38
2023-03-20T09:09:30.604Z,6.30
2023-03-20T09:11:59.424Z,6.50
2023-03-20T09:14:27.740Z,11.10
2023-03-20T09:16:54.769Z,6.50
2023-03-20T09:19:21.812Z,7.05
2023-03-20T09:21:48.963Z,6.32
2023-03-20T09:24:16.427Z,6.65
2023-03-20T09:26:43.564Z,6.53
2023-03-20T09:29:10.853Z,5.68
2023-03-20T09:31:37.958Z,5.53
2023-03-20T09:34:05.072Z,5.60
2023-03-20T09:36:33.492Z,5.35
2023-03-20T09:39:01.157Z,5.28
2023-03-20T09:41:29.638Z,4.78
2023-03-20T09:44:08.129Z,4.68
2023-03-20T09:46:49.625Z,5.03
2023-03-20T09:49:54.160Z,5.63
2023-03-20T09:52:21.221Z,5.93
2023-03-20T09:54:54.880Z,5.60
2023-03-20T09:59:57.660Z,5.85
2023-03-20T10:02:42.797Z,4.70
2023-03-20T10:05:21.035Z,5.45
2023-03-20T10:07:49.042Z,5.15
2023-03-20T10:10:20.277Z,4.88
2023-03-20T10:13:14.416Z,5.05
2023-03-20T10:15:52.396Z,5.25
2023-03-20T10:18:27.896Z,5.35
2023-03-20T10:21:07.091Z,4.13
2023-03-20T10:23:41.975Z,4.57
2023-03-20T10:26:14.308Z,4.32
2023-03-20T10:29:00.869Z,4.32
2023-03-20T10:32:01.589Z,4.90
2023-03-20T10:35:21.416Z,4.43
2023-03-20T10:38:00.883Z,4.60
2023-03-20T10:40:36.301Z,5.28
2023-03-20T10:43:11.516Z,4.57
2023-03-20T10:45:45.826Z,4.30
2023-03-20T10:48:37.114Z,4.30
2023-03-20T10:51:06.674Z,5.07
2023-03-20T10:53:46.686Z,4.25
2023-03-20T10:56:20.275Z,4.72
2023-03-20T10:58:50.470Z,4.65
2023-03-20T11:01:18.353Z,5.20
2023-03-20T11:03:45.409Z,6.28
2023-03-20T11:06:15.470Z,6.00
2023-03-20T11:08:47.323Z,5.47
2023-03-20T11:11:21.629Z,5.25
2023-03-20T11:13:49.854Z,4.95
2023-03-20T11:16:23.390Z,5.65
2023-03-20T11:18:52.464Z,5.72
2023-03-20T11:21:23.044Z,6.60
2023-03-20T11:23:51.301Z,6.30
2023-03-20T11:26:40.700Z,6.55
2023-03-20T11:29:27.293Z,7.10
2023-03-20T11:31:54.526Z,7.00
2023-03-20T11:34:31.051Z,8.13
2023-03-20T11:37:10.645Z,7.47
2023-03-20T11:39:40.013Z,7.80
2023-03-20T11:42:24.021Z,9.18
2023-03-20T11:45:02.850Z,9.80
2023-03-20T11:47:35.614Z,8.50
2023-03-20T11:50:05.689Z,9.52
2023-03-20T11:52:39.131Z,10.45
2023-03-20T11:55:32.226Z,9.02
2023-03-20T11:58:01.723Z,9.35
2023-03-20T12:00:40.755Z,8.93
2023-03-20T12:03:32.670Z,10.45
2023-03-20T12:06:01.611Z,10.90
2023-03-20T12:08:31.633Z,11.13
2023-03-20T12:11:19.395Z,9.85
2023-03-20T12:13:48.790Z,10.88
2023-03-20T12:16:19.339Z,11.10
2023-03-20T12:18:57.414Z,9.85
2023-03-20T12:21:35.952Z,11.38
2023-03-20T12:24:14.959Z,9.93
2023-03-20T12:26:48.305Z,11.15
2023-03-20T12:29:31.560Z,11.13
2023-03-20T12:32:07.049Z,12.27
2023-03-20T12:35:16.790Z,11.93
2023-03-20T12:37:44.089Z,12.38
2023-03-20T12:40:18.957Z,12.32
2023-03-20T12:42:57.433Z,13.18
2023-03-20T12:45:32.954Z,12.38
2023-03-20T12:48:19.665Z,13.60
2023-03-20T12:50:56.954Z,12.57
2023-03-20T12:54:02.692Z,13.20
2023-03-20T12:56:52.775Z,13.15
2023-03-20T12:59:30.058Z,12.95
2023-03-20T13:02:23.109Z,13.90
2023-03-20T13:04:59.603Z,14.77
2023-03-20T13:07:46.107Z,14.15
2023-03-20T13:10:23.150Z,13.65
2023-03-20T13:13:15.435Z,14.60
2023-03-20T13:16:00.984Z,12.30
2023-03-20T13:18:46.348Z,13.15
2023-03-20T13:21:19.333Z,13.40
2023-03-20T13:24:01.125Z,13.02
2023-03-20T13:27:05.878Z,13.50
2023-03-20T13:29:51.406Z,46.47
2023-03-20T13:32:48.086Z,17.75
2023-03-20T13:35:25.912Z,17.80
2023-03-20T13:38:12.883Z,17.25
2023-03-20T13:40:43.901Z,14.80
2023-03-20T13:43:21.772Z,13.02
2023-03-20T13:45:54.607Z,13.85
2023-03-20T13:48:30.922Z,14.50
2023-03-20T13:51:06.216Z,14.27
2023-03-20T13:53:38.440Z,13.43
2023-03-20T13:56:26.693Z,14.23
2023-03-20T13:59:30.918Z,15.02
2023-03-20T14:02:08.516Z,14.27
2023-03-20T14:04:35.650Z,14.80
2023-03-20T14:07:02.998Z,14.90
2023-03-20T14:09:37.589Z,13.82
2023-03-20T14:12:12.923Z,15.80
2023-03-20T14:14:49.915Z,15.98
2023-03-20T14:17:19.099Z,15.30
2023-03-20T14:19:47.147Z,14.38
2023-03-20T14:22:27.933Z,16.35
2023-03-20T14:24:59.783Z,16.63
2023-03-20T14:27:44.064Z,15.57
2023-03-20T14:30:30.850Z,18.75
2023-03-20T14:33:23.324Z,17.35
2023-03-20T14:36:12.663Z,17.83
2023-03-20T14:38:55.627Z,16.48
2023-03-20T14:42:00.652Z,15.70
2023-03-20T14:44:33.995Z,15.95
2023-03-20T14:47:21.246Z,15.30
2023-03-20T14:49:55.716Z,14.52
2023-03-20T14:52:35.222Z,14.85
2023-03-20T14:55:24.861Z,14.80
2023-03-20T14:57:59.133Z,16.48
2023-03-20T15:00:30.776Z,15.55
2023-03-20T15:03:03.732Z,17.38
2023-03-20T15:05:39.533Z,15.40
2023-03-20T15:08:14.951Z,15.50
2023-03-20T15:10:50.221Z,15.57
2023-03-20T15:13:18.154Z,16.55
2023-03-20T15:16:05.045Z,15.23
2023-03-20T15:18:41.116Z,16.55
2023-03-20T15:21:39.025Z,18.30
2023-03-20T15:24:06.123Z,18.08
2023-03-20T15:26:35.241Z,16.20
2023-03-20T15:29:06.570Z,14.65
2023-03-20T15:31:36.889Z,16.92
2023-03-20T15:34:08.630Z,15.20
2023-03-20T15:36:39.584Z,13.77
2023-03-20T15:39:07.159Z,14.77
2023-03-20T15:41:38.274Z,18.63
2023-03-20T15:44:19.084Z,16.58
2023-03-20T15:47:07.346Z,14.80
2023-03-20T15:49:34.538Z,14.05
2023-03-20T15:52:07.064Z,15.93
2023-03-20T15:54:37.331Z,16.05
2023-03-20T15:57:05.421Z,15.07
2023-03-20T15:59:34.336Z,13.63
2023-03-20T16:02:02.678Z,13.80
2023-03-20T16:04:30.829Z,14.68
2023-03-20T16:07:01.589Z,15.02
2023-03-20T16:09:29.827Z,15.13
2023-03-20T16:12:02.806Z,15.75
2023-03-20T16:14:33.684Z,16.45
2023-03-20T16:17:03.904Z,16.83
2023-03-20T16:19:31.295Z,16.17
2023-03-20T16:22:11.051Z,16.45
2023-03-20T16:24:40.482Z,15.93
2023-03-20T16:27:09.920Z,17.63
2023-03-20T16:29:42.735Z,17.27
2023-03-20T16:32:43.614Z,16.93
2023-03-20T16:35:22.801Z,17.33
2023-03-20T16:37:54.453Z,19.85
2023-03-20T16:40:32.809Z,19.23
2023-03-20T16:43:19.068Z,20.10
2023-03-20T16:45:53.786Z,19.80
2023-03-20T16:48:26.075Z,19.77
2023-03-20T16:51:02.558Z,21.20
2023-03-20T16:53:37.064Z,20.02
2023-03-20T16:56:05.329Z,21.35
2023-03-20T16:58:33.886Z,21.55
2023-03-20T17:01:06.292Z,20.88
2023-03-20T17:03:48.090Z,20.83
2023-03-20T17:06:25.822Z,20.27
2023-03-20T17:09:08.109Z,20.77
2023-03-20T17:11:37.599Z,21.08
2023-03-20T17:14:04.748Z,21.73
2023-03-20T17:16:33.315Z,23.60
2023-03-20T17:19:00.836Z,21.33
2023-03-20T17:21:29.406Z,22.85
2023-03-20T17:23:56.759Z,23.23
2023-03-20T17:26:24.228Z,23.45
2023-03-20T17:28:51.620Z,23.25
2023-03-20T17:31:19.422Z,21.98
2023-03-20T17:33:47.128Z,23.23
2023-03-20T17:36:18.343Z,24.50
2023-03-20T17:38:45.423Z,25.80
2023-03-20T17:41:18.134Z,23.55
2023-03-20T17:43:46.080Z,22.25
2023-03-20T17:46:24.222Z,23.15
2023-03-20T17:48:56.118Z,26.15
2023-03-20T17:51:23.164Z,25.48
2023-03-20T17:53:55.171Z,25.15
2023-03-20T17:56:22.523Z,23.90
2023-03-20T17:58:50.973Z,23.55
2023-03-20T18:01:18.204Z,24.02
2023-03-20T18:03:45.354Z,22.92
2023-03-20T18:06:21.050Z,22.80
2023-03-20T18:08:48.102Z,23.13
2023-03-20T18:11:15.180Z,23.35
2023-03-20T18:13:42.424Z,24.77
2023-03-20T18:16:18.925Z,24.17
2023-03-20T18:18:47.022Z,24.25
2023-03-20T18:21:15.759Z,24.70
2023-03-20T18:23:43.743Z,23.20
2023-03-20T18:26:26.225Z,24.60
2023-03-20T18:28:54.899Z,24.70
2023-03-20T18:31:22.311Z,28.45
2023-03-20T18:33:51.630Z,28.55
2023-03-20T18:36:24.018Z,22.83
2023-03-20T18:38:52.245Z,25.85
2023-03-20T18:41:19.833Z,25.52
2023-03-20T18:43:47.061Z,24.90
2023-03-20T18:46:19.141Z,26.55
2023-03-20T18:48:47.035Z,23.05
2023-03-20T18:51:14.856Z,25.50
2023-03-20T18:53:42.753Z,26.15
2023-03-20T18:56:21.569Z,24.30
2023-03-20T18:58:49.118Z,27.10
2023-03-20T19:01:17.226Z,26.48
2023-03-20T19:03:46.295Z,26.92
2023-03-20T19:06:16.238Z,25.08
2023-03-20T19:08:44.620Z,26.02
2023-03-20T19:11:15.562Z,24.83
2023-03-20T19:13:47.222Z,25.23
2023-03-20T19:16:28.109Z,28.17
2023-03-20T19:18:59.669Z,24.48
2023-03-20T19:21:27.982Z,24.63
2023-03-20T19:23:57.123Z,26.90
2023-03-20T19:26:26.144Z,23.35
2023-03-20T19:28:55.388Z,22.40
2023-03-20T19:31:23.369Z,23.77
2023-03-20T19:33:51.662Z,21.70
2023-03-20T19:36:31.419Z,19.60
2023-03-20T19:39:01.834Z,23.15
2023-03-20T19:41:31.036Z,22.40
2023-03-20T19:43:59.715Z,22.20
2023-03-20T19:46:43.211Z,23.05
2023-03-20T19:49:30.151Z,22.85
2023-03-20T19:51:57.991Z,23.63
2023-03-20T19:54:25.288Z,22.77
2023-03-20T19:56:52.353Z,23.63
2023-03-20T19:59:21.059Z,22.40
2023-03-20T20:01:48.612Z,23.80
2023-03-20T20:04:16.209Z,23.45
2023-03-20T20:06:43.486Z,22.92
2023-03-20T20:09:10.605Z,22.20
2023-03-20T20:11:37.718Z,27.42
2023-03-20T20:14:08.728Z,27.38
2023-03-20T20:16:39.595Z,24.00
2023-03-20T20:19:07.165Z,30.30
2023-03-20T20:24:22.288Z,19.52
2023-03-20T20:27:11.541Z,19.83
2023-03-20T20:29:38.954Z,20.02
2023-03-20T20:32:06.353Z,21.13
2023-03-20T20:38:02.832Z,21.42
2023-03-20T20:40:13.624Z,20.08
2023-03-20T20:42:41.072Z,19.23
2023-03-20T20:45:11.907Z,20.30
2023-03-20T20:47:43.964Z,19.10
2023-03-20T20:50:12.168Z,16.92
2023-03-20T20:52:41.707Z,17.80
2023-03-20T20:55:22.632Z,17.08
2023-03-20T20:57:52.434Z,15.90
2023-03-20T21:00:25.809Z,16.00
2023-03-20T21:02:56.707Z,15.05
2023-03-20T21:05:23.926Z,15.65
2023-03-20T21:07:52.536Z,15.07
2023-03-20T21:10:21.156Z,16.45
2023-03-20T21:12:58.663Z,15.95
2023-03-20T21:15:27.485Z,16.02
2023-03-20T21:18:01.198Z,16.58
2023-03-20T21:20:31.522Z,19.20
2023-03-20T21:22:59.674Z,18.45
2023-03-20T21:25:40.974Z,17.10
2023-03-20T21:28:10.367Z,18.88
2023-03-20T21:30:46.727Z,17.00
2023-03-20T21:33:18.213Z,18.17
2023-03-20T21:35:51.086Z,16.65
2023-03-20T21:38:58.558Z,17.63
2023-03-20T21:41:09.190Z,17.17
2023-03-20T21:43:36.223Z,17.38
2023-03-20T21:49:38.848Z,17.50
2023-03-20T21:55:04.059Z,16.48
2023-03-20T21:58:12.768Z,15.65
2023-03-20T22:02:49.157Z,15.18
2023-03-20T22:05:52.871Z,16.40
2023-03-20T22:08:58.330Z,16.60
2023-03-20T22:14:37.172Z,15.27
2023-03-20T22:17:29.914Z,15.40
2023-03-20T22:20:07.136Z,14.63
2023-03-20T22:28:15.870Z,13.48
2023-03-20T22:31:13.281Z,14.90
2023-03-20T22:34:05.212Z,14.80
2023-03-20T22:39:36.600Z,14.98
2023-03-20T22:44:58.609Z,15.45
2023-03-20T22:47:05.787Z,15.57
2023-03-20T22:49:32.879Z,16.88
2023-03-20T22:52:23.054Z,16.02
2023-03-20T22:54:48.397Z,14.20
2023-03-20T22:57:15.489Z,15.20
2023-03-20T22:59:42.608Z,14.73
2023-03-20T23:02:09.717Z,15.10
2023-03-20T23:04:36.814Z,15.70
2023-03-20T23:07:03.884Z,14.48
2023-03-20T23:09:31.303Z,15.30
2023-03-20T23:11:58.337Z,14.98
2023-03-20T23:14:28.427Z,14.52
2023-03-20T23:16:57.923Z,14.20
2023-03-20T23:19:26.525Z,15.82
2023-03-20T23:21:53.651Z,15.10
2023-03-20T23:24:20.955Z,15.15
2023-03-20T23:26:48.009Z,15.02
2023-03-20T23:29:15.153Z,15.02
2023-03-20T23:31:42.195Z,14.70
2023-03-20T23:34:09.223Z,14.15
2023-03-20T23:36:37.585Z,15.45
2023-03-20T23:39:06.468Z,15.00
2023-03-20T23:42:04.751Z,15.32
2023-03-20T23:44:21.290Z,15.20
2023-03-20T23:46:48.599Z,13.85
2023-03-20T23:49:16.602Z,14.90
2023-03-20T23:51:43.914Z,15.73
2023-03-20T23:54:11.417Z,15.23
2023-03-20T23:56:38.863Z,16.83
2023-03-20T23:59:18.684Z,16.10
